Aeroporto :
LOGIN :

Iscrizione | Disclaimer

   EN    FR    IT 

 










Sommario :    VFR   VFR Marginale   IFR   IFR Intensivo   IFR Molto Intensivo
Visibilità : 
Base nubi : 
>= 8 km
>= 3000ft
5 / 8 km
1000 / 3000 ft
1500m / 5 km
500 / 1000 ft
800 / 1500m
200 / 500 ft
< 800m
< 200 ft
Simboli :   Temporali  Nebbia  Neve Forte  Precipitazioni Forti  Vento > 20 kt
SIGMETs :   Varie  Temporali  Ghiacco  Turbolenza  Onda orograficha  Ceneri Vulcaniche






- Altitudine del aeroporto : 306 ft
- Codice IATA : EMA


EGNX - Nottingham East Midlands

ULTIMO METAR :
  • 240220Z 21013KT CAVOK 07/05 Q1005

METARs OBSOLETI :
  • 240150Z 21011KT CAVOK 07/05 Q1005
  • 240120Z 21012KT 9999 FEW048 07/04 Q1006
  • 240050Z 21012KT CAVOK 07/04 Q1006
  • 240020Z 22012KT CAVOK 07/04 Q1006
  • 232350Z 21011KT CAVOK 07/04 Q1006

TAF TAF EGNX
Valido dal 24 a 00 ore il 25 a 00 ore UTC


232253Z 2400/2424 19012KT 9999 FEW015 SCT025
PROB40
TEMPO 2402/2408 19017G27KT
BECMG 2408/2411 20022G35KT
TEMPO 2408/2412 8000 -RA BKN014
BECMG 2413/2416 23015KT
TEMPO 2413/2422 6000 RA SCT008 BKN011
PROB40
TEMPO 2413/2416 3000 +RA BKN008
PROB30
TEMPO 2422/2424 7000 SHRA BKN014
ATIS : +44 1332 852 852 (ext 3201)



MetMap, La meteo Aeronautica in un colpo d'occhio ! - Copyright ORBIFLY Dicembre 2007 - Disclaimer

ORBIFLY MET'MAP TEAM :

Programmazione e sviluppo : Alexandra Zaïnal
Concezione : Baudouin d'Aumeries
Aiuto per la programmazione : Marc-Olivier Méhu
Supporto tecnico e logistico : Manuel Goepfert
Aiuto per la traduzione : Arnaldo La Scala

Contatto : metmap@orbifly.com




FONTI E CREDITI :

   NOAA